Lone Tree, North Dakota
Current Conditions -  °F | °C
As of 3:58 AM on Monday 22 Dec 2014 (Local Time) from KMIB Reporting Station
Freezing Drizzle Freezing Drizzle  
Wind Chill: 21°   Ceiling: 200
Heat Index: 28°   Visibility: 1.7mi
Dew Point: 28°   Wind: 7mph
Humidity: 100%   Direction: 150°SSE
Pressure: 29.45"   Gusts: NA
Location:  48.3281°N, 101.856°W
Report Text: KMIB 220958Z AUTO 15006KT 1 3/4SM R11/2800FT -FZDZ BR OVC002 M02/M02 A2945 RMK AO2 SLP997 P0000 T10221022 $
Loading
Personal Weather Stations






























Interactive Weather Map New forecast layout! Learn more

10-Day Weather Forecast

Advertisements
Track Severe Weather on mobile